sensor_id;sensor_type;location;lat;lon;timestamp;P1;durP1;ratioP1;P2;durP2;ratioP2
68993;SDS011;56054;50.968;5.816;2022-10-13T00:00:11;13.10;;;5.50;;
68993;SDS011;56054;50.968;5.816;2022-10-13T00:03:19;18.83;;;6.43;;
68993;SDS011;56054;50.968;5.816;2022-10-13T00:06:27;13.80;;;6.67;;
68993;SDS011;56054;50.968;5.816;2022-10-13T00:09:34;13.30;;;6.13;;
68993;SDS011;56054;50.968;5.816;2022-10-13T00:12:45;16.23;;;5.80;;
68993;SDS011;56054;50.968;5.816;2022-10-13T00:16:00;12.27;;;6.23;;
68993;SDS011;56054;50.968;5.816;2022-10-13T00:19:09;11.57;;;5.70;;
68993;SDS011;56054;50.968;5.816;2022-10-13T00:22:16;15.03;;;5.47;;
68993;SDS011;56054;50.968;5.816;2022-10-13T00:25:23;16.70;;;5.23;;
68993;SDS011;56054;50.968;5.816;2022-10-13T00:28:30;17.53;;;5.77;;
68993;SDS011;56054;50.968;5.816;2022-10-13T00:31:37;17.87;;;6.03;;
68993;SDS011;56054;50.968;5.816;2022-10-13T00:34:46;15.83;;;5.87;;
68993;SDS011;56054;50.968;5.816;2022-10-13T00:38:19;17.00;;;5.67;;
68993;SDS011;56054;50.968;5.816;2022-10-13T00:41:28;10.10;;;5.73;;
68993;SDS011;56054;50.968;5.816;2022-10-13T00:48:11;12.03;;;5.33;;
68993;SDS011;56054;50.968;5.816;2022-10-13T00:51:20;16.57;;;5.80;;
68993;SDS011;56054;50.968;5.816;2022-10-13T00:54:29;14.73;;;5.20;;
68993;SDS011;56054;50.968;5.816;2022-10-13T00:57:37;17.37;;;5.93;;
68993;SDS011;56054;50.968;5.816;2022-10-13T01:00:49;13.67;;;5.37;;
68993;SDS011;56054;50.968;5.816;2022-10-13T01:03:58;11.83;;;5.60;;
68993;SDS011;56054;50.968;5.816;2022-10-13T01:07:05;14.53;;;5.30;;
68993;SDS011;56054;50.968;5.816;2022-10-13T01:10:12;10.40;;;5.70;;
68993;SDS011;56054;50.968;5.816;2022-10-13T01:17:32;18.10;;;5.97;;
68993;SDS011;56054;50.968;5.816;2022-10-13T01:44:24;16.03;;;5.97;;
68993;SDS011;56054;50.968;5.816;2022-10-13T01:47:50;18.57;;;5.87;;
68993;SDS011;56054;50.968;5.816;2022-10-13T01:50:59;14.47;;;6.10;;
68993;SDS011;56054;50.968;5.816;2022-10-13T01:54:07;15.37;;;6.47;;
68993;SDS011;56054;50.968;5.816;2022-10-13T02:04:13;14.53;;;6.23;;
68993;SDS011;56054;50.968;5.816;2022-10-13T02:11:15;15.20;;;5.63;;
68993;SDS011;56054;50.968;5.816;2022-10-13T02:14:33;15.50;;;5.37;;
68993;SDS011;56054;50.968;5.816;2022-10-13T02:17:44;20.43;;;5.47;;
68993;SDS011;56054;50.968;5.816;2022-10-13T02:21:00;15.90;;;5.63;;
68993;SDS011;56054;50.968;5.816;2022-10-13T02:24:13;14.83;;;6.57;;
68993;SDS011;56054;50.968;5.816;2022-10-13T02:27:47;13.27;;;5.67;;
68993;SDS011;56054;50.968;5.816;2022-10-13T02:30:54;14.03;;;5.43;;
68993;SDS011;56054;50.968;5.816;2022-10-13T02:34:01;12.47;;;5.83;;
68993;SDS011;56054;50.968;5.816;2022-10-13T02:37:08;12.10;;;5.37;;
68993;SDS011;56054;50.968;5.816;2022-10-13T02:40:15;12.90;;;5.77;;
68993;SDS011;56054;50.968;5.816;2022-10-13T02:43:24;13.00;;;5.37;;
68993;SDS011;56054;50.968;5.816;2022-10-13T02:46:31;11.13;;;5.47;;
68993;SDS011;56054;50.968;5.816;2022-10-13T02:49:39;19.30;;;5.73;;
68993;SDS011;56054;50.968;5.816;2022-10-13T02:52:46;11.67;;;5.90;;
68993;SDS011;56054;50.968;5.816;2022-10-13T02:55:53;15.93;;;5.90;;
68993;SDS011;56054;50.968;5.816;2022-10-13T02:59:01;13.53;;;5.97;;
68993;SDS011;56054;50.968;5.816;2022-10-13T03:02:09;21.70;;;6.20;;
68993;SDS011;56054;50.968;5.816;2022-10-13T03:05:24;20.23;;;5.97;;
68993;SDS011;56054;50.968;5.816;2022-10-13T03:08:31;16.00;;;5.57;;
68993;SDS011;56054;50.968;5.816;2022-10-13T03:11:40;27.03;;;5.87;;
68993;SDS011;56054;50.968;5.816;2022-10-13T03:14:53;17.03;;;5.50;;
68993;SDS011;56054;50.968;5.816;2022-10-13T03:18:00;13.20;;;5.83;;
68993;SDS011;56054;50.968;5.816;2022-10-13T03:21:07;13.77;;;5.97;;
68993;SDS011;56054;50.968;5.816;2022-10-13T03:24:50;12.83;;;5.20;;
68993;SDS011;56054;50.968;5.816;2022-10-13T03:28:35;12.90;;;5.70;;
68993;SDS011;56054;50.968;5.816;2022-10-13T03:31:43;13.10;;;5.93;;
68993;SDS011;56054;50.968;5.816;2022-10-13T03:35:16;15.90;;;5.97;;
68993;SDS011;56054;50.968;5.816;2022-10-13T03:38:55;15.90;;;5.67;;
68993;SDS011;56054;50.968;5.816;2022-10-13T03:42:34;13.13;;;5.37;;
68993;SDS011;56054;50.968;5.816;2022-10-13T03:46:04;16.67;;;5.57;;
68993;SDS011;56054;50.968;5.816;2022-10-13T03:49:14;10.13;;;5.07;;
68993;SDS011;56054;50.968;5.816;2022-10-13T03:52:22;14.07;;;5.40;;
68993;SDS011;56054;50.968;5.816;2022-10-13T03:55:29;10.33;;;5.60;;
68993;SDS011;56054;50.968;5.816;2022-10-13T03:58:36;16.97;;;5.87;;
68993;SDS011;56054;50.968;5.816;2022-10-13T04:01:44;9.93;;;4.83;;
68993;SDS011;56054;50.968;5.816;2022-10-13T04:04:56;12.37;;;5.60;;
68993;SDS011;56054;50.968;5.816;2022-10-13T04:08:03;12.63;;;5.13;;
68993;SDS011;56054;50.968;5.816;2022-10-13T04:11:11;14.40;;;5.77;;
68993;SDS011;56054;50.968;5.816;2022-10-13T04:14:29;12.23;;;5.50;;
68993;SDS011;56054;50.968;5.816;2022-10-13T04:17:41;12.03;;;5.60;;
68993;SDS011;56054;50.968;5.816;2022-10-13T04:20:49;12.70;;;5.20;;
68993;SDS011;56054;50.968;5.816;2022-10-13T04:23:57;9.00;;;4.70;;
68993;SDS011;56054;50.968;5.816;2022-10-13T04:27:05;11.23;;;5.37;;
68993;SDS011;56054;50.968;5.816;2022-10-13T04:30:12;12.80;;;5.50;;
68993;SDS011;56054;50.968;5.816;2022-10-13T04:33:20;12.60;;;4.93;;
68993;SDS011;56054;50.968;5.816;2022-10-13T04:36:27;13.67;;;5.53;;
68993;SDS011;56054;50.968;5.816;2022-10-13T04:39:38;17.07;;;5.80;;
68993;SDS011;56054;50.968;5.816;2022-10-13T04:42:46;14.23;;;6.13;;
68993;SDS011;56054;50.968;5.816;2022-10-13T04:45:53;9.93;;;5.83;;
68993;SDS011;56054;50.968;5.816;2022-10-13T04:49:05;11.10;;;5.67;;
68993;SDS011;56054;50.968;5.816;2022-10-13T04:52:12;13.70;;;5.73;;
68993;SDS011;56054;50.968;5.816;2022-10-13T04:55:20;11.83;;;5.93;;
68993;SDS011;56054;50.968;5.816;2022-10-13T04:58:27;18.37;;;6.40;;
68993;SDS011;56054;50.968;5.816;2022-10-13T05:01:34;10.70;;;6.30;;
68993;SDS011;56054;50.968;5.816;2022-10-13T05:04:46;18.37;;;5.97;;
68993;SDS011;56054;50.968;5.816;2022-10-13T05:07:57;13.17;;;5.80;;
68993;SDS011;56054;50.968;5.816;2022-10-13T05:11:25;22.87;;;7.13;;
68993;SDS011;56054;50.968;5.816;2022-10-13T05:14:59;17.90;;;6.37;;
68993;SDS011;56054;50.968;5.816;2022-10-13T05:18:19;21.10;;;6.90;;
68993;SDS011;56054;50.968;5.816;2022-10-13T05:21:29;15.17;;;7.37;;
68993;SDS011;56054;50.968;5.816;2022-10-13T05:24:45;13.20;;;6.57;;
68993;SDS011;56054;50.968;5.816;2022-10-13T05:28:17;11.93;;;7.70;;
68993;SDS011;56054;50.968;5.816;2022-10-13T05:31:40;17.07;;;7.20;;
68993;SDS011;56054;50.968;5.816;2022-10-13T05:34:49;14.80;;;7.23;;
68993;SDS011;56054;50.968;5.816;2022-10-13T05:37:56;14.57;;;8.13;;
68993;SDS011;56054;50.968;5.816;2022-10-13T05:41:08;15.80;;;7.37;;
68993;SDS011;56054;50.968;5.816;2022-10-13T05:51:18;15.60;;;7.27;;
68993;SDS011;56054;50.968;5.816;2022-10-13T05:54:30;17.80;;;7.47;;
68993;SDS011;56054;50.968;5.816;2022-10-13T05:57:51;18.20;;;7.50;;
68993;SDS011;56054;50.968;5.816;2022-10-13T06:00:58;15.60;;;7.70;;
68993;SDS011;56054;50.968;5.816;2022-10-13T06:04:08;21.30;;;8.27;;
68993;SDS011;56054;50.968;5.816;2022-10-13T06:07:20;15.50;;;7.03;;
68993;SDS011;56054;50.968;5.816;2022-10-13T06:10:35;15.20;;;7.13;;
68993;SDS011;56054;50.968;5.816;2022-10-13T06:13:43;18.43;;;7.40;;
68993;SDS011;56054;50.968;5.816;2022-10-13T06:16:50;14.67;;;7.27;;
68993;SDS011;56054;50.968;5.816;2022-10-13T06:19:59;21.83;;;7.47;;
68993;SDS011;56054;50.968;5.816;2022-10-13T06:23:10;19.90;;;7.07;;
68993;SDS011;56054;50.968;5.816;2022-10-13T06:26:19;18.37;;;8.07;;
68993;SDS011;56054;50.968;5.816;2022-10-13T06:29:27;18.87;;;7.30;;
68993;SDS011;56054;50.968;5.816;2022-10-13T06:32:39;18.63;;;7.67;;
68993;SDS011;56054;50.968;5.816;2022-10-13T06:35:46;16.73;;;7.53;;
68993;SDS011;56054;50.968;5.816;2022-10-13T06:39:31;12.93;;;8.13;;
68993;SDS011;56054;50.968;5.816;2022-10-13T06:42:39;15.73;;;7.17;;
68993;SDS011;56054;50.968;5.816;2022-10-13T06:45:46;13.67;;;7.37;;
68993;SDS011;56054;50.968;5.816;2022-10-13T06:48:53;13.43;;;6.93;;
68993;SDS011;56054;50.968;5.816;2022-10-13T06:52:02;18.43;;;7.37;;
68993;SDS011;56054;50.968;5.816;2022-10-13T06:55:11;16.63;;;6.73;;
68993;SDS011;56054;50.968;5.816;2022-10-13T06:58:19;20.47;;;7.60;;
68993;SDS011;56054;50.968;5.816;2022-10-13T07:01:32;16.57;;;7.07;;
68993;SDS011;56054;50.968;5.816;2022-10-13T07:05:04;21.60;;;7.07;;
68993;SDS011;56054;50.968;5.816;2022-10-13T07:08:13;18.20;;;7.73;;
68993;SDS011;56054;50.968;5.816;2022-10-13T07:11:20;17.30;;;8.53;;
68993;SDS011;56054;50.968;5.816;2022-10-13T07:14:29;16.03;;;7.30;;
68993;SDS011;56054;50.968;5.816;2022-10-13T07:17:37;19.10;;;7.63;;
68993;SDS011;56054;50.968;5.816;2022-10-13T07:20:44;24.90;;;7.60;;
68993;SDS011;56054;50.968;5.816;2022-10-13T07:23:53;14.13;;;7.27;;
68993;SDS011;56054;50.968;5.816;2022-10-13T07:27:01;15.90;;;7.17;;
68993;SDS011;56054;50.968;5.816;2022-10-13T07:30:09;17.47;;;7.37;;
68993;SDS011;56054;50.968;5.816;2022-10-13T07:33:20;18.27;;;7.43;;
68993;SDS011;56054;50.968;5.816;2022-10-13T07:36:28;20.07;;;7.17;;
68993;SDS011;56054;50.968;5.816;2022-10-13T07:39:44;16.47;;;6.93;;
68993;SDS011;56054;50.968;5.816;2022-10-13T07:42:51;20.70;;;6.53;;
68993;SDS011;56054;50.968;5.816;2022-10-13T07:45:58;18.70;;;6.93;;
68993;SDS011;56054;50.968;5.816;2022-10-13T07:49:07;14.73;;;6.80;;
68993;SDS011;56054;50.968;5.816;2022-10-13T07:52:19;14.30;;;6.40;;
68993;SDS011;56054;50.968;5.816;2022-10-13T07:55:38;18.37;;;6.87;;
68993;SDS011;56054;50.968;5.816;2022-10-13T07:58:47;22.20;;;7.23;;
68993;SDS011;56054;50.968;5.816;2022-10-13T08:01:56;15.10;;;6.57;;
68993;SDS011;56054;50.968;5.816;2022-10-13T08:05:08;16.23;;;7.57;;
68993;SDS011;56054;50.968;5.816;2022-10-13T08:08:41;15.97;;;7.03;;
68993;SDS011;56054;50.968;5.816;2022-10-13T08:11:49;18.57;;;6.57;;
68993;SDS011;56054;50.968;5.816;2022-10-13T08:14:57;19.70;;;6.63;;
68993;SDS011;56054;50.968;5.816;2022-10-13T08:18:09;19.30;;;7.07;;
68993;SDS011;56054;50.968;5.816;2022-10-13T08:21:18;18.20;;;7.00;;
68993;SDS011;56054;50.968;5.816;2022-10-13T08:24:29;18.77;;;6.73;;
68993;SDS011;56054;50.968;5.816;2022-10-13T08:27:36;19.13;;;6.53;;
68993;SDS011;56054;50.968;5.816;2022-10-13T08:30:43;24.57;;;7.03;;
68993;SDS011;56054;50.968;5.816;2022-10-13T08:33:51;13.13;;;6.53;;
68993;SDS011;56054;50.968;5.816;2022-10-13T08:36:58;13.33;;;6.90;;
68993;SDS011;56054;50.968;5.816;2022-10-13T08:40:05;19.37;;;6.83;;
68993;SDS011;56054;50.968;5.816;2022-10-13T08:43:16;20.13;;;6.80;;
68993;SDS011;56054;50.968;5.816;2022-10-13T08:46:29;15.30;;;7.27;;
68993;SDS011;56054;50.968;5.816;2022-10-13T08:50:15;23.45;;;6.82;;
68993;SDS011;56054;50.968;5.816;2022-10-13T08:53:49;17.60;;;6.47;;
68993;SDS011;56054;50.968;5.816;2022-10-13T08:56:56;11.52;;;6.07;;
68993;SDS011;56054;50.968;5.816;2022-10-13T09:00:08;17.00;;;6.60;;
68993;SDS011;56054;50.968;5.816;2022-10-13T09:03:28;14.77;;;6.83;;
68993;SDS011;56054;50.968;5.816;2022-10-13T09:06:40;14.43;;;6.13;;
68993;SDS011;56054;50.968;5.816;2022-10-13T09:10:16;17.88;;;5.60;;
68993;SDS011;56054;50.968;5.816;2022-10-13T09:13:24;14.23;;;6.40;;
68993;SDS011;56054;50.968;5.816;2022-10-13T09:17:11;13.33;;;6.40;;
68993;SDS011;56054;50.968;5.816;2022-10-13T09:20:19;20.48;;;6.22;;
68993;SDS011;56054;50.968;5.816;2022-10-13T09:24:04;13.73;;;6.97;;
68993;SDS011;56054;50.968;5.816;2022-10-13T09:27:15;15.73;;;6.17;;
68993;SDS011;56054;50.968;5.816;2022-10-13T09:30:30;20.47;;;6.63;;
68993;SDS011;56054;50.968;5.816;2022-10-13T09:37:31;14.27;;;6.55;;
68993;SDS011;56054;50.968;5.816;2022-10-13T09:40:39;12.73;;;7.20;;
68993;SDS011;56054;50.968;5.816;2022-10-13T09:47:13;11.35;;;5.63;;
68993;SDS011;56054;50.968;5.816;2022-10-13T09:50:27;14.20;;;5.80;;
68993;SDS011;56054;50.968;5.816;2022-10-13T09:53:39;11.23;;;4.85;;
68993;SDS011;56054;50.968;5.816;2022-10-13T09:56:48;12.60;;;5.57;;
68993;SDS011;56054;50.968;5.816;2022-10-13T10:03:34;9.82;;;5.53;;
68993;SDS011;56054;50.968;5.816;2022-10-13T10:06:44;14.27;;;6.53;;
68993;SDS011;56054;50.968;5.816;2022-10-13T10:09:55;15.60;;;5.85;;
68993;SDS011;56054;50.968;5.816;2022-10-13T10:13:07;20.10;;;6.10;;
68993;SDS011;56054;50.968;5.816;2022-10-13T10:16:32;14.93;;;6.00;;
68993;SDS011;56054;50.968;5.816;2022-10-13T10:27:29;14.90;;;5.93;;
68993;SDS011;56054;50.968;5.816;2022-10-13T10:37:56;13.10;;;6.15;;
68993;SDS011;56054;50.968;5.816;2022-10-13T10:44:54;18.65;;;6.13;;
68993;SDS011;56054;50.968;5.816;2022-10-13T10:48:10;20.63;;;6.75;;
68993;SDS011;56054;50.968;5.816;2022-10-13T10:51:34;20.25;;;7.70;;
68993;SDS011;56054;50.968;5.816;2022-10-13T10:55:36;22.88;;;7.40;;
68993;SDS011;56054;50.968;5.816;2022-10-13T10:58:26;19.88;;;7.40;;
68993;SDS011;56054;50.968;5.816;2022-10-13T11:06:00;20.50;;;6.03;;
68993;SDS011;56054;50.968;5.816;2022-10-13T11:13:05;12.68;;;5.82;;
68993;SDS011;56054;50.968;5.816;2022-10-13T11:16:25;13.95;;;5.60;;
68993;SDS011;56054;50.968;5.816;2022-10-13T11:19:49;9.88;;;5.72;;
68993;SDS011;56054;50.968;5.816;2022-10-13T11:29:56;16.02;;;5.57;;
68993;SDS011;56054;50.968;5.816;2022-10-13T11:37:14;10.80;;;4.85;;
68993;SDS011;56054;50.968;5.816;2022-10-13T11:41:14;12.10;;;5.55;;
68993;SDS011;56054;50.968;5.816;2022-10-13T11:55:58;9.45;;;5.50;;
68993;SDS011;56054;50.968;5.816;2022-10-13T11:58:59;11.82;;;5.53;;
68993;SDS011;56054;50.968;5.816;2022-10-13T12:03:04;11.77;;;5.55;;
68993;SDS011;56054;50.968;5.816;2022-10-13T12:09:22;16.50;;;6.13;;
68993;SDS011;56054;50.968;5.816;2022-10-13T12:12:30;12.35;;;5.70;;
68993;SDS011;56054;50.968;5.816;2022-10-13T12:15:40;18.08;;;5.95;;
68993;SDS011;56054;50.968;5.816;2022-10-13T12:18:50;16.40;;;6.40;;
68993;SDS011;56054;50.968;5.816;2022-10-13T12:21:58;15.57;;;6.65;;
68993;SDS011;56054;50.968;5.816;2022-10-13T12:25:06;18.55;;;6.45;;
68993;SDS011;56054;50.968;5.816;2022-10-13T12:28:18;15.10;;;5.95;;
68993;SDS011;56054;50.968;5.816;2022-10-13T12:31:46;14.55;;;6.50;;
68993;SDS011;56054;50.968;5.816;2022-10-13T12:38:30;15.93;;;5.68;;
68993;SDS011;56054;50.968;5.816;2022-10-13T12:41:37;14.00;;;6.13;;
68993;SDS011;56054;50.968;5.816;2022-10-13T12:44:52;17.08;;;5.97;;
68993;SDS011;56054;50.968;5.816;2022-10-13T12:47:59;15.10;;;6.18;;
68993;SDS011;56054;50.968;5.816;2022-10-13T12:51:16;11.73;;;5.93;;
68993;SDS011;56054;50.968;5.816;2022-10-13T12:54:31;9.68;;;5.57;;
68993;SDS011;56054;50.968;5.816;2022-10-13T12:57:40;16.00;;;6.60;;
68993;SDS011;56054;50.968;5.816;2022-10-13T13:00:55;13.80;;;5.25;;
68993;SDS011;56054;50.968;5.816;2022-10-13T13:07:34;10.75;;;5.90;;
68993;SDS011;56054;50.968;5.816;2022-10-13T13:10:52;11.50;;;5.60;;
68993;SDS011;56054;50.968;5.816;2022-10-13T13:17:50;19.65;;;6.18;;
68993;SDS011;56054;50.968;5.816;2022-10-13T13:21:00;12.45;;;5.38;;
68993;SDS011;56054;50.968;5.816;2022-10-13T13:24:07;14.30;;;5.88;;
68993;SDS011;56054;50.968;5.816;2022-10-13T13:27:25;11.80;;;5.97;;
68993;SDS011;56054;50.968;5.816;2022-10-13T13:30:44;14.82;;;5.32;;
68993;SDS011;56054;50.968;5.816;2022-10-13T13:33:51;12.70;;;5.80;;
68993;SDS011;56054;50.968;5.816;2022-10-13T13:37:02;15.15;;;4.70;;
68993;SDS011;56054;50.968;5.816;2022-10-13T13:40:13;12.20;;;5.38;;
68993;SDS011;56054;50.968;5.816;2022-10-13T13:43:23;11.75;;;5.07;;
68993;SDS011;56054;50.968;5.816;2022-10-13T13:46:30;12.02;;;5.60;;
68993;SDS011;56054;50.968;5.816;2022-10-13T13:49:37;9.25;;;4.68;;
68993;SDS011;56054;50.968;5.816;2022-10-13T13:53:02;10.32;;;4.72;;
68993;SDS011;56054;50.968;5.816;2022-10-13T13:56:13;11.02;;;4.30;;
68993;SDS011;56054;50.968;5.816;2022-10-13T13:59:22;10.75;;;4.70;;
68993;SDS011;56054;50.968;5.816;2022-10-13T14:02:59;15.50;;;4.78;;
68993;SDS011;56054;50.968;5.816;2022-10-13T14:06:06;17.60;;;4.85;;
68993;SDS011;56054;50.968;5.816;2022-10-13T14:09:15;13.75;;;4.80;;
68993;SDS011;56054;50.968;5.816;2022-10-13T14:12:25;9.65;;;4.32;;
68993;SDS011;56054;50.968;5.816;2022-10-13T14:15:32;15.15;;;4.82;;
68993;SDS011;56054;50.968;5.816;2022-10-13T14:18:40;12.40;;;5.22;;
68993;SDS011;56054;50.968;5.816;2022-10-13T14:21:47;11.65;;;5.22;;
68993;SDS011;56054;50.968;5.816;2022-10-13T14:24:55;12.55;;;5.95;;
68993;SDS011;56054;50.968;5.816;2022-10-13T14:28:02;16.38;;;6.38;;
68993;SDS011;56054;50.968;5.816;2022-10-13T14:31:15;17.75;;;6.03;;
68993;SDS011;56054;50.968;5.816;2022-10-13T14:34:25;10.40;;;6.18;;
68993;SDS011;56054;50.968;5.816;2022-10-13T14:37:35;22.48;;;6.80;;
68993;SDS011;56054;50.968;5.816;2022-10-13T14:40:42;10.07;;;6.90;;
68993;SDS011;56054;50.968;5.816;2022-10-13T14:43:51;13.10;;;6.45;;
68993;SDS011;56054;50.968;5.816;2022-10-13T14:46:58;12.57;;;6.50;;
68993;SDS011;56054;50.968;5.816;2022-10-13T14:50:05;15.02;;;6.20;;
68993;SDS011;56054;50.968;5.816;2022-10-13T14:53:14;10.85;;;6.13;;
68993;SDS011;56054;50.968;5.816;2022-10-13T14:56:22;21.50;;;7.57;;
68993;SDS011;56054;50.968;5.816;2022-10-13T14:59:36;16.90;;;6.93;;
68993;SDS011;56054;50.968;5.816;2022-10-13T15:02:45;15.95;;;6.53;;
68993;SDS011;56054;50.968;5.816;2022-10-13T15:06:19;17.85;;;7.15;;
68993;SDS011;56054;50.968;5.816;2022-10-13T15:09:57;14.52;;;7.72;;
68993;SDS011;56054;50.968;5.816;2022-10-13T15:13:10;18.35;;;8.50;;
68993;SDS011;56054;50.968;5.816;2022-10-13T15:16:25;11.85;;;8.05;;
68993;SDS011;56054;50.968;5.816;2022-10-13T15:19:43;15.30;;;9.27;;
68993;SDS011;56054;50.968;5.816;2022-10-13T15:23:00;17.00;;;9.25;;
68993;SDS011;56054;50.968;5.816;2022-10-13T15:26:11;13.50;;;8.55;;
68993;SDS011;56054;50.968;5.816;2022-10-13T15:32:30;15.30;;;8.32;;
68993;SDS011;56054;50.968;5.816;2022-10-13T15:35:49;16.38;;;9.50;;
68993;SDS011;56054;50.968;5.816;2022-10-13T15:39:04;17.70;;;9.43;;
68993;SDS011;56054;50.968;5.816;2022-10-13T15:42:11;14.40;;;8.85;;
68993;SDS011;56054;50.968;5.816;2022-10-13T15:45:18;16.90;;;9.13;;
68993;SDS011;56054;50.968;5.816;2022-10-13T15:48:30;13.70;;;9.40;;
68993;SDS011;56054;50.968;5.816;2022-10-13T15:51:38;17.75;;;9.10;;
68993;SDS011;56054;50.968;5.816;2022-10-13T15:54:45;20.98;;;8.77;;
68993;SDS011;56054;50.968;5.816;2022-10-13T15:57:52;17.17;;;9.25;;
68993;SDS011;56054;50.968;5.816;2022-10-13T16:01:00;14.60;;;8.48;;
68993;SDS011;56054;50.968;5.816;2022-10-13T16:04:12;25.85;;;10.15;;
68993;SDS011;56054;50.968;5.816;2022-10-13T16:07:20;17.95;;;9.30;;
68993;SDS011;56054;50.968;5.816;2022-10-13T16:10:27;16.15;;;9.43;;
68993;SDS011;56054;50.968;5.816;2022-10-13T16:13:35;18.52;;;9.30;;
68993;SDS011;56054;50.968;5.816;2022-10-13T16:16:42;18.58;;;10.00;;
68993;SDS011;56054;50.968;5.816;2022-10-13T16:19:50;15.60;;;9.15;;
68993;SDS011;56054;50.968;5.816;2022-10-13T16:23:06;15.60;;;9.38;;
68993;SDS011;56054;50.968;5.816;2022-10-13T16:26:15;19.40;;;9.38;;
68993;SDS011;56054;50.968;5.816;2022-10-13T16:29:23;15.85;;;9.82;;
68993;SDS011;56054;50.968;5.816;2022-10-13T16:32:30;18.13;;;10.77;;
68993;SDS011;56054;50.968;5.816;2022-10-13T16:35:50;16.30;;;10.00;;
68993;SDS011;56054;50.968;5.816;2022-10-13T16:38:57;20.33;;;10.13;;
68993;SDS011;56054;50.968;5.816;2022-10-13T16:42:09;18.85;;;10.43;;
68993;SDS011;56054;50.968;5.816;2022-10-13T16:45:16;18.92;;;10.60;;
68993;SDS011;56054;50.968;5.816;2022-10-13T16:48:24;20.85;;;11.02;;
68993;SDS011;56054;50.968;5.816;2022-10-13T16:51:31;17.42;;;10.40;;
68993;SDS011;56054;50.968;5.816;2022-10-13T16:54:50;17.90;;;9.60;;
68993;SDS011;56054;50.968;5.816;2022-10-13T16:58:01;18.33;;;9.65;;
68993;SDS011;56054;50.968;5.816;2022-10-13T17:01:29;16.83;;;7.60;;
68993;SDS011;56054;50.968;5.816;2022-10-13T17:04:42;15.07;;;6.50;;
68993;SDS011;56054;50.968;5.816;2022-10-13T17:08:27;11.32;;;4.57;;
68993;SDS011;56054;50.968;5.816;2022-10-13T17:11:37;7.75;;;3.13;;
68993;SDS011;56054;50.968;5.816;2022-10-13T17:14:46;5.75;;;3.05;;
68993;SDS011;56054;50.968;5.816;2022-10-13T17:17:54;8.88;;;3.10;;
68993;SDS011;56054;50.968;5.816;2022-10-13T17:21:02;4.93;;;2.60;;
68993;SDS011;56054;50.968;5.816;2022-10-13T17:24:11;4.05;;;2.13;;
68993;SDS011;56054;50.968;5.816;2022-10-13T17:27:27;5.03;;;2.45;;
68993;SDS011;56054;50.968;5.816;2022-10-13T17:30:35;3.85;;;1.70;;
68993;SDS011;56054;50.968;5.816;2022-10-13T17:33:42;5.22;;;1.83;;
68993;SDS011;56054;50.968;5.816;2022-10-13T17:37:16;5.05;;;1.65;;
68993;SDS011;56054;50.968;5.816;2022-10-13T17:40:23;7.03;;;1.95;;
68993;SDS011;56054;50.968;5.816;2022-10-13T17:43:30;2.85;;;1.10;;
68993;SDS011;56054;50.968;5.816;2022-10-13T17:46:38;4.38;;;1.90;;
68993;SDS011;56054;50.968;5.816;2022-10-13T17:49:45;4.90;;;1.70;;
68993;SDS011;56054;50.968;5.816;2022-10-13T17:53:00;4.93;;;1.75;;
68993;SDS011;56054;50.968;5.816;2022-10-13T17:56:11;5.60;;;2.22;;
68993;SDS011;56054;50.968;5.816;2022-10-13T17:59:28;5.25;;;2.63;;
68993;SDS011;56054;50.968;5.816;2022-10-13T18:02:40;5.38;;;2.58;;
68993;SDS011;56054;50.968;5.816;2022-10-13T18:05:54;6.80;;;3.08;;
68993;SDS011;56054;50.968;5.816;2022-10-13T18:09:17;8.30;;;3.00;;
68993;SDS011;56054;50.968;5.816;2022-10-13T18:12:25;9.40;;;3.50;;
68993;SDS011;56054;50.968;5.816;2022-10-13T18:15:35;4.70;;;2.58;;
68993;SDS011;56054;50.968;5.816;2022-10-13T18:18:43;7.50;;;3.20;;
68993;SDS011;56054;50.968;5.816;2022-10-13T18:21:51;5.93;;;3.92;;
68993;SDS011;56054;50.968;5.816;2022-10-13T18:24:59;6.05;;;3.20;;
68993;SDS011;56054;50.968;5.816;2022-10-13T18:31:37;4.72;;;3.05;;
68993;SDS011;56054;50.968;5.816;2022-10-13T18:34:45;8.82;;;3.45;;
68993;SDS011;56054;50.968;5.816;2022-10-13T18:37:52;7.10;;;3.33;;
68993;SDS011;56054;50.968;5.816;2022-10-13T18:41:04;7.95;;;3.85;;
68993;SDS011;56054;50.968;5.816;2022-10-13T18:44:11;7.68;;;3.25;;
68993;SDS011;56054;50.968;5.816;2022-10-13T18:47:25;8.10;;;3.60;;
68993;SDS011;56054;50.968;5.816;2022-10-13T18:50:35;8.50;;;4.07;;
68993;SDS011;56054;50.968;5.816;2022-10-13T18:53:45;8.02;;;3.25;;
68993;SDS011;56054;50.968;5.816;2022-10-13T18:57:20;6.13;;;3.05;;
68993;SDS011;56054;50.968;5.816;2022-10-13T19:00:39;6.85;;;3.47;;
68993;SDS011;56054;50.968;5.816;2022-10-13T19:03:46;5.13;;;3.35;;
68993;SDS011;56054;50.968;5.816;2022-10-13T19:06:54;6.43;;;3.47;;
68993;SDS011;56054;50.968;5.816;2022-10-13T19:10:01;14.10;;;3.77;;
68993;SDS011;56054;50.968;5.816;2022-10-13T19:13:10;10.83;;;3.93;;
68993;SDS011;56054;50.968;5.816;2022-10-13T19:16:18;10.30;;;4.13;;
68993;SDS011;56054;50.968;5.816;2022-10-13T19:19:27;7.37;;;3.83;;
68993;SDS011;56054;50.968;5.816;2022-10-13T19:22:35;11.40;;;3.50;;
68993;SDS011;56054;50.968;5.816;2022-10-13T19:25:43;5.50;;;3.33;;
68993;SDS011;56054;50.968;5.816;2022-10-13T19:29:16;12.63;;;3.97;;
68993;SDS011;56054;50.968;5.816;2022-10-13T19:32:23;13.50;;;5.33;;
68993;SDS011;56054;50.968;5.816;2022-10-13T19:35:30;9.07;;;4.37;;
68993;SDS011;56054;50.968;5.816;2022-10-13T19:38:37;9.03;;;3.87;;
68993;SDS011;56054;50.968;5.816;2022-10-13T19:41:46;8.98;;;4.07;;
68993;SDS011;56054;50.968;5.816;2022-10-13T19:44:54;10.70;;;5.00;;
68993;SDS011;56054;50.968;5.816;2022-10-13T19:48:01;9.03;;;4.83;;
68993;SDS011;56054;50.968;5.816;2022-10-13T19:51:09;9.38;;;5.07;;
68993;SDS011;56054;50.968;5.816;2022-10-13T19:54:27;10.55;;;5.35;;
68993;SDS011;56054;50.968;5.816;2022-10-13T19:57:40;15.93;;;5.90;;
68993;SDS011;56054;50.968;5.816;2022-10-13T20:01:32;9.63;;;5.80;;
68993;SDS011;56054;50.968;5.816;2022-10-13T20:04:45;14.23;;;5.85;;
68993;SDS011;56054;50.968;5.816;2022-10-13T20:08:20;12.50;;;6.20;;
68993;SDS011;56054;50.968;5.816;2022-10-13T20:12:00;12.07;;;6.50;;
68993;SDS011;56054;50.968;5.816;2022-10-13T20:15:36;16.55;;;6.82;;
68993;SDS011;56054;50.968;5.816;2022-10-13T20:19:17;11.93;;;6.03;;
68993;SDS011;56054;50.968;5.816;2022-10-13T20:22:25;10.40;;;6.22;;
68993;SDS011;56054;50.968;5.816;2022-10-13T20:26:08;12.03;;;6.70;;
68993;SDS011;56054;50.968;5.816;2022-10-13T20:29:42;14.45;;;6.63;;
68993;SDS011;56054;50.968;5.816;2022-10-13T20:32:50;13.97;;;7.30;;
68993;SDS011;56054;50.968;5.816;2022-10-13T20:36:02;13.13;;;7.50;;
68993;SDS011;56054;50.968;5.816;2022-10-13T20:39:11;17.37;;;7.63;;
68993;SDS011;56054;50.968;5.816;2022-10-13T20:42:18;15.67;;;6.93;;
68993;SDS011;56054;50.968;5.816;2022-10-13T20:45:25;14.27;;;7.97;;
68993;SDS011;56054;50.968;5.816;2022-10-13T20:48:33;17.75;;;7.93;;
68993;SDS011;56054;50.968;5.816;2022-10-13T20:51:42;13.53;;;7.67;;
68993;SDS011;56054;50.968;5.816;2022-10-13T20:54:50;13.07;;;7.27;;
68993;SDS011;56054;50.968;5.816;2022-10-13T20:57:58;13.00;;;7.70;;
68993;SDS011;56054;50.968;5.816;2022-10-13T21:01:05;16.43;;;6.87;;
68993;SDS011;56054;50.968;5.816;2022-10-13T21:04:13;16.87;;;6.53;;
68993;SDS011;56054;50.968;5.816;2022-10-13T21:07:20;14.93;;;7.20;;
68993;SDS011;56054;50.968;5.816;2022-10-13T21:10:27;20.73;;;8.20;;
68993;SDS011;56054;50.968;5.816;2022-10-13T21:13:36;12.50;;;6.67;;
68993;SDS011;56054;50.968;5.816;2022-10-13T21:16:44;15.80;;;6.57;;